sensor_id;sensor_type;location;lat;lon;timestamp;P1;durP1;ratioP1;P2;durP2;ratioP2
39880;SDS011;25554;44.954;10.068;2023-08-21T00:01:22;13.20;;;11.80;;
39880;SDS011;25554;44.954;10.068;2023-08-21T00:06:15;14.18;;;12.38;;
39880;SDS011;25554;44.954;10.068;2023-08-21T00:11:07;14.52;;;12.50;;
39880;SDS011;25554;44.954;10.068;2023-08-21T00:16:13;17.60;;;15.80;;
39880;SDS011;25554;44.954;10.068;2023-08-21T00:19:06;14.88;;;13.27;;
39880;SDS011;25554;44.954;10.068;2023-08-21T00:23:59;13.10;;;11.80;;
39880;SDS011;25554;44.954;10.068;2023-08-21T00:28:51;16.45;;;13.43;;
39880;SDS011;25554;44.954;10.068;2023-08-21T00:33:56;12.80;;;11.00;;
39880;SDS011;25554;44.954;10.068;2023-08-21T00:40:33;13.00;;;11.52;;
39880;SDS011;25554;44.954;10.068;2023-08-21T00:43:00;12.75;;;11.45;;
39880;SDS011;25554;44.954;10.068;2023-08-21T00:45:26;15.35;;;12.35;;
39880;SDS011;25554;44.954;10.068;2023-08-21T00:50:18;17.08;;;13.93;;
39880;SDS011;25554;44.954;10.068;2023-08-21T00:55:14;20.38;;;13.45;;
39880;SDS011;25554;44.954;10.068;2023-08-21T00:57:41;14.00;;;12.60;;
39880;SDS011;25554;44.954;10.068;2023-08-21T01:00:08;16.02;;;12.57;;
39880;SDS011;25554;44.954;10.068;2023-08-21T01:02:38;15.70;;;14.10;;
39880;SDS011;25554;44.954;10.068;2023-08-21T01:07:32;15.52;;;13.68;;
39880;SDS011;25554;44.954;10.068;2023-08-21T01:15:25;16.05;;;14.38;;
39880;SDS011;25554;44.954;10.068;2023-08-21T01:17:51;18.60;;;16.13;;
39880;SDS011;25554;44.954;10.068;2023-08-21T01:20:18;21.77;;;18.52;;
39880;SDS011;25554;44.954;10.068;2023-08-21T01:22:45;20.90;;;18.45;;
39880;SDS011;25554;44.954;10.068;2023-08-21T01:25:12;21.67;;;19.05;;
39880;SDS011;25554;44.954;10.068;2023-08-21T01:27:43;19.45;;;17.42;;
39880;SDS011;25554;44.954;10.068;2023-08-21T01:30:12;24.67;;;19.55;;
39880;SDS011;25554;44.954;10.068;2023-08-21T01:32:50;22.67;;;17.02;;
39880;SDS011;25554;44.954;10.068;2023-08-21T01:35:33;17.48;;;15.55;;
39880;SDS011;25554;44.954;10.068;2023-08-21T01:38:02;18.90;;;16.90;;
39880;SDS011;25554;44.954;10.068;2023-08-21T01:40:29;16.35;;;14.80;;
39880;SDS011;25554;44.954;10.068;2023-08-21T01:42:59;17.48;;;15.63;;
39880;SDS011;25554;44.954;10.068;2023-08-21T01:45:26;22.33;;;17.73;;
39880;SDS011;25554;44.954;10.068;2023-08-21T01:50:19;19.13;;;15.82;;
39880;SDS011;25554;44.954;10.068;2023-08-21T01:52:45;17.77;;;16.02;;
39880;SDS011;25554;44.954;10.068;2023-08-21T01:57:38;21.33;;;17.30;;
39880;SDS011;25554;44.954;10.068;2023-08-21T02:02:39;20.75;;;18.33;;
39880;SDS011;25554;44.954;10.068;2023-08-21T02:05:06;26.45;;;19.08;;
39880;SDS011;25554;44.954;10.068;2023-08-21T02:07:33;20.08;;;17.90;;
39880;SDS011;25554;44.954;10.068;2023-08-21T02:09:59;20.80;;;17.30;;
39880;SDS011;25554;44.954;10.068;2023-08-21T02:14:51;18.15;;;15.82;;
39880;SDS011;25554;44.954;10.068;2023-08-21T02:19:44;18.95;;;17.05;;
39880;SDS011;25554;44.954;10.068;2023-08-21T02:22:10;28.23;;;19.17;;
39880;SDS011;25554;44.954;10.068;2023-08-21T02:24:36;20.95;;;18.48;;
39880;SDS011;25554;44.954;10.068;2023-08-21T02:27:04;21.10;;;18.30;;
39880;SDS011;25554;44.954;10.068;2023-08-21T02:31:56;20.88;;;18.60;;
39880;SDS011;25554;44.954;10.068;2023-08-21T02:34:22;18.75;;;16.73;;
39880;SDS011;25554;44.954;10.068;2023-08-21T02:36:48;19.80;;;16.70;;
39880;SDS011;25554;44.954;10.068;2023-08-21T02:39:15;20.75;;;18.58;;
39880;SDS011;25554;44.954;10.068;2023-08-21T02:44:07;17.70;;;16.02;;
39880;SDS011;25554;44.954;10.068;2023-08-21T02:46:33;21.30;;;18.65;;
39880;SDS011;25554;44.954;10.068;2023-08-21T02:49:03;22.17;;;19.98;;
39880;SDS011;25554;44.954;10.068;2023-08-21T02:53:56;20.70;;;18.50;;
39880;SDS011;25554;44.954;10.068;2023-08-21T02:56:22;19.20;;;17.20;;
39880;SDS011;25554;44.954;10.068;2023-08-21T03:01:14;21.77;;;18.77;;
39880;SDS011;25554;44.954;10.068;2023-08-21T03:03:41;21.10;;;17.95;;
39880;SDS011;25554;44.954;10.068;2023-08-21T03:06:07;23.50;;;18.88;;
39880;SDS011;25554;44.954;10.068;2023-08-21T03:11:00;23.73;;;19.17;;
39880;SDS011;25554;44.954;10.068;2023-08-21T03:13:26;19.65;;;16.85;;
39880;SDS011;25554;44.954;10.068;2023-08-21T03:18:18;26.55;;;19.13;;
39880;SDS011;25554;44.954;10.068;2023-08-21T03:20:45;37.67;;;18.73;;
39880;SDS011;25554;44.954;10.068;2023-08-21T03:23:12;73.05;;;23.30;;
39880;SDS011;25554;44.954;10.068;2023-08-21T03:25:40;31.63;;;20.15;;
39880;SDS011;25554;44.954;10.068;2023-08-21T03:30:33;22.10;;;18.02;;
39880;SDS011;25554;44.954;10.068;2023-08-21T03:32:59;25.95;;;20.55;;
39880;SDS011;25554;44.954;10.068;2023-08-21T03:35:25;41.17;;;21.75;;
39880;SDS011;25554;44.954;10.068;2023-08-21T03:37:52;32.92;;;20.80;;
39880;SDS011;25554;44.954;10.068;2023-08-21T03:42:49;26.58;;;20.38;;
39880;SDS011;25554;44.954;10.068;2023-08-21T03:45:15;26.15;;;20.33;;
39880;SDS011;25554;44.954;10.068;2023-08-21T03:50:15;26.17;;;20.33;;
39880;SDS011;25554;44.954;10.068;2023-08-21T03:55:08;23.85;;;21.35;;
39880;SDS011;25554;44.954;10.068;2023-08-21T04:00:00;27.67;;;22.38;;
39880;SDS011;25554;44.954;10.068;2023-08-21T04:04:52;23.13;;;20.77;;
39880;SDS011;25554;44.954;10.068;2023-08-21T04:14:05;26.08;;;20.92;;
39880;SDS011;25554;44.954;10.068;2023-08-21T04:16:49;31.38;;;20.27;;
39880;SDS011;25554;44.954;10.068;2023-08-21T04:21:42;30.73;;;20.20;;
39880;SDS011;25554;44.954;10.068;2023-08-21T04:24:08;35.33;;;22.35;;
39880;SDS011;25554;44.954;10.068;2023-08-21T04:26:34;31.80;;;22.52;;
39880;SDS011;25554;44.954;10.068;2023-08-21T04:31:26;24.20;;;19.20;;
39880;SDS011;25554;44.954;10.068;2023-08-21T04:33:53;34.88;;;21.58;;
39880;SDS011;25554;44.954;10.068;2023-08-21T04:36:20;22.33;;;19.55;;
39880;SDS011;25554;44.954;10.068;2023-08-21T04:38:48;22.25;;;18.40;;
39880;SDS011;25554;44.954;10.068;2023-08-21T04:41:15;25.75;;;19.25;;
39880;SDS011;25554;44.954;10.068;2023-08-21T04:43:44;24.45;;;18.35;;
39880;SDS011;25554;44.954;10.068;2023-08-21T04:46:11;23.65;;;19.98;;
39880;SDS011;25554;44.954;10.068;2023-08-21T04:48:40;21.73;;;16.92;;
39880;SDS011;25554;44.954;10.068;2023-08-21T04:51:06;20.13;;;16.50;;
39880;SDS011;25554;44.954;10.068;2023-08-21T04:53:33;28.67;;;19.35;;
39880;SDS011;25554;44.954;10.068;2023-08-21T04:55:59;29.77;;;19.00;;
39880;SDS011;25554;44.954;10.068;2023-08-21T04:58:26;26.98;;;18.40;;
39880;SDS011;25554;44.954;10.068;2023-08-21T05:03:19;19.33;;;14.02;;
39880;SDS011;25554;44.954;10.068;2023-08-21T05:05:55;23.25;;;16.52;;
39880;SDS011;25554;44.954;10.068;2023-08-21T05:10:56;19.23;;;15.43;;
39880;SDS011;25554;44.954;10.068;2023-08-21T05:13:24;16.77;;;15.07;;
39880;SDS011;25554;44.954;10.068;2023-08-21T05:15:54;17.55;;;15.75;;
39880;SDS011;25554;44.954;10.068;2023-08-21T05:18:24;16.35;;;14.60;;
39880;SDS011;25554;44.954;10.068;2023-08-21T05:20:53;17.10;;;15.40;;
39880;SDS011;25554;44.954;10.068;2023-08-21T05:23:21;22.05;;;17.50;;
39880;SDS011;25554;44.954;10.068;2023-08-21T05:25:50;18.67;;;15.38;;
39880;SDS011;25554;44.954;10.068;2023-08-21T05:30:42;21.65;;;16.25;;
39880;SDS011;25554;44.954;10.068;2023-08-21T05:35:35;19.25;;;16.42;;
39880;SDS011;25554;44.954;10.068;2023-08-21T05:38:02;24.38;;;16.45;;
39880;SDS011;25554;44.954;10.068;2023-08-21T05:40:30;20.92;;;15.13;;
39880;SDS011;25554;44.954;10.068;2023-08-21T05:42:57;21.83;;;15.50;;
39880;SDS011;25554;44.954;10.068;2023-08-21T05:45:24;18.35;;;15.18;;
39880;SDS011;25554;44.954;10.068;2023-08-21T05:47:51;23.42;;;14.85;;
39880;SDS011;25554;44.954;10.068;2023-08-21T05:52:43;23.00;;;14.73;;
39880;SDS011;25554;44.954;10.068;2023-08-21T05:57:37;18.17;;;12.55;;
39880;SDS011;25554;44.954;10.068;2023-08-21T06:00:04;20.90;;;13.55;;
39880;SDS011;25554;44.954;10.068;2023-08-21T06:02:40;26.40;;;14.35;;
39880;SDS011;25554;44.954;10.068;2023-08-21T06:05:17;23.85;;;13.63;;
39880;SDS011;25554;44.954;10.068;2023-08-21T06:07:46;22.63;;;13.63;;
39880;SDS011;25554;44.954;10.068;2023-08-21T06:10:12;29.52;;;14.50;;
39880;SDS011;25554;44.954;10.068;2023-08-21T06:12:40;15.88;;;13.55;;
39880;SDS011;25554;44.954;10.068;2023-08-21T06:15:07;23.30;;;15.05;;
39880;SDS011;25554;44.954;10.068;2023-08-21T06:17:34;30.40;;;15.23;;
39880;SDS011;25554;44.954;10.068;2023-08-21T06:23:56;20.13;;;15.05;;
39880;SDS011;25554;44.954;10.068;2023-08-21T06:26:38;15.65;;;13.70;;
39880;SDS011;25554;44.954;10.068;2023-08-21T06:29:07;15.27;;;13.88;;
39880;SDS011;25554;44.954;10.068;2023-08-21T06:34:00;17.85;;;14.48;;
39880;SDS011;25554;44.954;10.068;2023-08-21T06:36:27;16.33;;;14.63;;
39880;SDS011;25554;44.954;10.068;2023-08-21T06:41:20;18.85;;;14.07;;
39880;SDS011;25554;44.954;10.068;2023-08-21T06:43:48;13.80;;;12.48;;
39880;SDS011;25554;44.954;10.068;2023-08-21T06:46:17;17.10;;;11.60;;
39880;SDS011;25554;44.954;10.068;2023-08-21T06:48:44;15.60;;;11.15;;
39880;SDS011;25554;44.954;10.068;2023-08-21T06:51:10;13.85;;;11.05;;
39880;SDS011;25554;44.954;10.068;2023-08-21T06:53:37;14.60;;;12.02;;
39880;SDS011;25554;44.954;10.068;2023-08-21T06:56:03;13.45;;;11.93;;
39880;SDS011;25554;44.954;10.068;2023-08-21T06:58:30;18.45;;;11.57;;
39880;SDS011;25554;44.954;10.068;2023-08-21T07:00:56;18.02;;;12.00;;
39880;SDS011;25554;44.954;10.068;2023-08-21T07:03:23;22.40;;;11.38;;
39880;SDS011;25554;44.954;10.068;2023-08-21T07:05:56;21.30;;;13.75;;
39880;SDS011;25554;44.954;10.068;2023-08-21T07:08:23;15.32;;;10.27;;
39880;SDS011;25554;44.954;10.068;2023-08-21T07:10:50;12.77;;;10.45;;
39880;SDS011;25554;44.954;10.068;2023-08-21T07:13:16;17.60;;;13.48;;
39880;SDS011;25554;44.954;10.068;2023-08-21T07:15:43;14.52;;;12.00;;
39880;SDS011;25554;44.954;10.068;2023-08-21T07:18:09;11.75;;;10.55;;
39880;SDS011;25554;44.954;10.068;2023-08-21T07:20:36;12.40;;;11.10;;
39880;SDS011;25554;44.954;10.068;2023-08-21T07:23:02;18.80;;;14.18;;
39880;SDS011;25554;44.954;10.068;2023-08-21T07:25:29;13.98;;;11.23;;
39880;SDS011;25554;44.954;10.068;2023-08-21T07:27:56;13.80;;;11.02;;
39880;SDS011;25554;44.954;10.068;2023-08-21T07:30:22;14.27;;;12.75;;
39880;SDS011;25554;44.954;10.068;2023-08-21T07:32:48;12.38;;;11.07;;
39880;SDS011;25554;44.954;10.068;2023-08-21T07:35:15;12.27;;;11.18;;
39880;SDS011;25554;44.954;10.068;2023-08-21T07:37:44;12.93;;;11.65;;
39880;SDS011;25554;44.954;10.068;2023-08-21T07:40:11;13.05;;;10.65;;
39880;SDS011;25554;44.954;10.068;2023-08-21T07:42:38;15.23;;;11.38;;
39880;SDS011;25554;44.954;10.068;2023-08-21T07:45:04;16.58;;;12.10;;
39880;SDS011;25554;44.954;10.068;2023-08-21T07:47:31;12.25;;;11.13;;
39880;SDS011;25554;44.954;10.068;2023-08-21T07:49:58;15.00;;;11.82;;
39880;SDS011;25554;44.954;10.068;2023-08-21T07:52:24;18.40;;;13.63;;
39880;SDS011;25554;44.954;10.068;2023-08-21T07:54:51;18.48;;;13.32;;
39880;SDS011;25554;44.954;10.068;2023-08-21T07:57:18;13.38;;;10.93;;
39880;SDS011;25554;44.954;10.068;2023-08-21T07:59:45;13.43;;;11.15;;
39880;SDS011;25554;44.954;10.068;2023-08-21T08:02:11;14.95;;;13.15;;
39880;SDS011;25554;44.954;10.068;2023-08-21T08:04:38;12.02;;;10.80;;
39880;SDS011;25554;44.954;10.068;2023-08-21T08:07:05;14.70;;;12.23;;
39880;SDS011;25554;44.954;10.068;2023-08-21T08:09:31;11.18;;;10.07;;
39880;SDS011;25554;44.954;10.068;2023-08-21T08:11:57;16.08;;;10.65;;
39880;SDS011;25554;44.954;10.068;2023-08-21T08:14:24;16.67;;;11.88;;
39880;SDS011;25554;44.954;10.068;2023-08-21T08:16:50;18.88;;;11.77;;
39880;SDS011;25554;44.954;10.068;2023-08-21T08:19:16;13.60;;;11.00;;
39880;SDS011;25554;44.954;10.068;2023-08-21T08:21:43;11.52;;;10.20;;
39880;SDS011;25554;44.954;10.068;2023-08-21T08:24:09;11.88;;;10.05;;
39880;SDS011;25554;44.954;10.068;2023-08-21T08:26:35;12.38;;;10.85;;
39880;SDS011;25554;44.954;10.068;2023-08-21T08:29:02;16.55;;;10.75;;
39880;SDS011;25554;44.954;10.068;2023-08-21T08:31:28;11.70;;;10.43;;
39880;SDS011;25554;44.954;10.068;2023-08-21T08:33:54;15.30;;;11.10;;
39880;SDS011;25554;44.954;10.068;2023-08-21T08:36:21;12.15;;;10.85;;
39880;SDS011;25554;44.954;10.068;2023-08-21T08:38:47;14.00;;;12.00;;
39880;SDS011;25554;44.954;10.068;2023-08-21T08:41:16;11.75;;;10.57;;
39880;SDS011;25554;44.954;10.068;2023-08-21T08:43:44;13.60;;;10.05;;
39880;SDS011;25554;44.954;10.068;2023-08-21T08:46:11;12.48;;;10.15;;
39880;SDS011;25554;44.954;10.068;2023-08-21T08:48:38;10.75;;;9.75;;
39880;SDS011;25554;44.954;10.068;2023-08-21T08:51:05;12.68;;;10.25;;
39880;SDS011;25554;44.954;10.068;2023-08-21T08:53:31;12.05;;;9.70;;
39880;SDS011;25554;44.954;10.068;2023-08-21T08:55:58;10.90;;;9.50;;
39880;SDS011;25554;44.954;10.068;2023-08-21T08:58:24;13.70;;;11.30;;
39880;SDS011;25554;44.954;10.068;2023-08-21T09:00:51;12.75;;;11.27;;
39880;SDS011;25554;44.954;10.068;2023-08-21T09:03:17;12.70;;;10.35;;
39880;SDS011;25554;44.954;10.068;2023-08-21T09:05:43;11.55;;;9.23;;
39880;SDS011;25554;44.954;10.068;2023-08-21T09:08:13;9.98;;;8.88;;
39880;SDS011;25554;44.954;10.068;2023-08-21T09:10:40;15.15;;;9.70;;
39880;SDS011;25554;44.954;10.068;2023-08-21T09:13:09;10.80;;;9.73;;
39880;SDS011;25554;44.954;10.068;2023-08-21T09:15:43;11.60;;;10.50;;
39880;SDS011;25554;44.954;10.068;2023-08-21T09:18:12;18.77;;;10.82;;
39880;SDS011;25554;44.954;10.068;2023-08-21T09:20:40;13.10;;;10.68;;
39880;SDS011;25554;44.954;10.068;2023-08-21T09:23:08;11.52;;;9.77;;
39880;SDS011;25554;44.954;10.068;2023-08-21T09:25:38;16.05;;;10.32;;
39880;SDS011;25554;44.954;10.068;2023-08-21T09:28:06;12.50;;;10.10;;
39880;SDS011;25554;44.954;10.068;2023-08-21T09:30:49;12.05;;;10.88;;
39880;SDS011;25554;44.954;10.068;2023-08-21T09:33:18;11.73;;;10.52;;
39880;SDS011;25554;44.954;10.068;2023-08-21T09:35:51;10.95;;;9.63;;
39880;SDS011;25554;44.954;10.068;2023-08-21T09:38:18;11.18;;;10.07;;
39880;SDS011;25554;44.954;10.068;2023-08-21T09:40:51;12.35;;;10.38;;
39880;SDS011;25554;44.954;10.068;2023-08-21T09:43:20;13.23;;;9.88;;
39880;SDS011;25554;44.954;10.068;2023-08-21T09:45:48;10.60;;;9.55;;
39880;SDS011;25554;44.954;10.068;2023-08-21T09:48:24;12.23;;;10.85;;
39880;SDS011;25554;44.954;10.068;2023-08-21T09:50:55;11.52;;;10.07;;
39880;SDS011;25554;44.954;10.068;2023-08-21T09:53:22;12.27;;;10.60;;
39880;SDS011;25554;44.954;10.068;2023-08-21T09:55:50;11.10;;;10.00;;
39880;SDS011;25554;44.954;10.068;2023-08-21T09:58:20;12.57;;;10.93;;
39880;SDS011;25554;44.954;10.068;2023-08-21T10:00:48;12.85;;;10.90;;
39880;SDS011;25554;44.954;10.068;2023-08-21T10:03:17;15.80;;;10.60;;
39880;SDS011;25554;44.954;10.068;2023-08-21T10:05:45;12.32;;;11.10;;
39880;SDS011;25554;44.954;10.068;2023-08-21T10:08:15;11.60;;;10.45;;
39880;SDS011;25554;44.954;10.068;2023-08-21T10:10:44;12.32;;;11.10;;
39880;SDS011;25554;44.954;10.068;2023-08-21T10:13:10;11.93;;;10.73;;
39880;SDS011;25554;44.954;10.068;2023-08-21T10:15:41;13.90;;;11.45;;
39880;SDS011;25554;44.954;10.068;2023-08-21T10:18:18;10.65;;;9.63;;
39880;SDS011;25554;44.954;10.068;2023-08-21T10:20:49;10.70;;;9.75;;
39880;SDS011;25554;44.954;10.068;2023-08-21T10:23:26;12.68;;;10.38;;
39880;SDS011;25554;44.954;10.068;2023-08-21T10:25:59;13.40;;;10.15;;
39880;SDS011;25554;44.954;10.068;2023-08-21T10:31:31;14.45;;;10.02;;
39880;SDS011;25554;44.954;10.068;2023-08-21T10:34:04;10.50;;;9.43;;
39880;SDS011;25554;44.954;10.068;2023-08-21T10:36:38;13.10;;;10.73;;
39880;SDS011;25554;44.954;10.068;2023-08-21T10:39:24;10.60;;;9.70;;
39880;SDS011;25554;44.954;10.068;2023-08-21T10:44:50;14.38;;;10.80;;
39880;SDS011;25554;44.954;10.068;2023-08-21T10:47:22;13.30;;;9.70;;
39880;SDS011;25554;44.954;10.068;2023-08-21T10:49:57;11.15;;;10.05;;
39880;SDS011;25554;44.954;10.068;2023-08-21T10:52:28;11.18;;;10.07;;
39880;SDS011;25554;44.954;10.068;2023-08-21T10:54:57;11.48;;;10.00;;
39880;SDS011;25554;44.954;10.068;2023-08-21T10:57:25;10.52;;;9.52;;
39880;SDS011;25554;44.954;10.068;2023-08-21T10:59:53;10.90;;;9.85;;
39880;SDS011;25554;44.954;10.068;2023-08-21T11:02:26;10.27;;;9.32;;
39880;SDS011;25554;44.954;10.068;2023-08-21T11:04:57;10.27;;;9.40;;
39880;SDS011;25554;44.954;10.068;2023-08-21T11:07:24;11.02;;;10.02;;
39880;SDS011;25554;44.954;10.068;2023-08-21T11:09:51;11.85;;;10.68;;
39880;SDS011;25554;44.954;10.068;2023-08-21T11:12:18;13.23;;;11.43;;
39880;SDS011;25554;44.954;10.068;2023-08-21T11:14:47;12.18;;;9.48;;
39880;SDS011;25554;44.954;10.068;2023-08-21T11:17:14;10.77;;;9.88;;
39880;SDS011;25554;44.954;10.068;2023-08-21T11:19:41;10.80;;;9.82;;
39880;SDS011;25554;44.954;10.068;2023-08-21T11:22:08;11.88;;;10.32;;
39880;SDS011;25554;44.954;10.068;2023-08-21T11:27:07;10.85;;;9.75;;
39880;SDS011;25554;44.954;10.068;2023-08-21T11:29:44;12.48;;;10.13;;
39880;SDS011;25554;44.954;10.068;2023-08-21T11:32:12;11.07;;;9.32;;
39880;SDS011;25554;44.954;10.068;2023-08-21T11:34:57;11.25;;;10.05;;
39880;SDS011;25554;44.954;10.068;2023-08-21T11:37:24;11.02;;;10.02;;
39880;SDS011;25554;44.954;10.068;2023-08-21T11:39:53;11.35;;;10.13;;
39880;SDS011;25554;44.954;10.068;2023-08-21T11:42:30;10.95;;;9.82;;
39880;SDS011;25554;44.954;10.068;2023-08-21T11:44:58;10.65;;;9.68;;
39880;SDS011;25554;44.954;10.068;2023-08-21T11:47:33;10.05;;;9.07;;
39880;SDS011;25554;44.954;10.068;2023-08-21T11:50:04;10.63;;;9.57;;
39880;SDS011;25554;44.954;10.068;2023-08-21T11:52:31;12.50;;;10.25;;
39880;SDS011;25554;44.954;10.068;2023-08-21T11:54:58;11.45;;;10.45;;
39880;SDS011;25554;44.954;10.068;2023-08-21T11:57:24;10.85;;;9.80;;
39880;SDS011;25554;44.954;10.068;2023-08-21T11:59:54;11.07;;;10.10;;
39880;SDS011;25554;44.954;10.068;2023-08-21T12:02:25;12.20;;;9.27;;
39880;SDS011;25554;44.954;10.068;2023-08-21T12:05:00;11.07;;;10.02;;
39880;SDS011;25554;44.954;10.068;2023-08-21T12:07:30;11.15;;;10.13;;
39880;SDS011;25554;44.954;10.068;2023-08-21T12:09:59;11.27;;;9.75;;
39880;SDS011;25554;44.954;10.068;2023-08-21T12:12:26;11.02;;;9.80;;
39880;SDS011;25554;44.954;10.068;2023-08-21T12:14:52;11.27;;;10.27;;
39880;SDS011;25554;44.954;10.068;2023-08-21T12:17:18;10.35;;;9.30;;
39880;SDS011;25554;44.954;10.068;2023-08-21T12:19:45;11.32;;;10.23;;
39880;SDS011;25554;44.954;10.068;2023-08-21T12:22:11;11.32;;;10.20;;
39880;SDS011;25554;44.954;10.068;2023-08-21T12:24:38;12.25;;;10.10;;
39880;SDS011;25554;44.954;10.068;2023-08-21T12:27:04;11.50;;;9.88;;
39880;SDS011;25554;44.954;10.068;2023-08-21T12:29:31;10.18;;;9.38;;
39880;SDS011;25554;44.954;10.068;2023-08-21T12:31:58;10.75;;;9.82;;
39880;SDS011;25554;44.954;10.068;2023-08-21T12:34:24;10.60;;;9.73;;
39880;SDS011;25554;44.954;10.068;2023-08-21T12:36:50;10.82;;;9.75;;
39880;SDS011;25554;44.954;10.068;2023-08-21T12:39:18;12.13;;;9.95;;
39880;SDS011;25554;44.954;10.068;2023-08-21T12:41:45;11.10;;;9.65;;
39880;SDS011;25554;44.954;10.068;2023-08-21T12:44:11;15.05;;;9.88;;
39880;SDS011;25554;44.954;10.068;2023-08-21T12:46:38;15.05;;;10.55;;
39880;SDS011;25554;44.954;10.068;2023-08-21T12:49:04;10.80;;;9.80;;
39880;SDS011;25554;44.954;10.068;2023-08-21T12:51:30;13.00;;;10.00;;
39880;SDS011;25554;44.954;10.068;2023-08-21T12:53:57;11.45;;;9.48;;
39880;SDS011;25554;44.954;10.068;2023-08-21T12:56:23;12.10;;;9.63;;
39880;SDS011;25554;44.954;10.068;2023-08-21T12:58:50;14.27;;;10.18;;
39880;SDS011;25554;44.954;10.068;2023-08-21T13:01:17;10.98;;;9.85;;
39880;SDS011;25554;44.954;10.068;2023-08-21T13:03:44;10.77;;;9.57;;
39880;SDS011;25554;44.954;10.068;2023-08-21T13:06:13;12.75;;;9.85;;
39880;SDS011;25554;44.954;10.068;2023-08-21T13:08:40;12.30;;;9.90;;
39880;SDS011;25554;44.954;10.068;2023-08-21T13:11:06;11.27;;;10.27;;
39880;SDS011;25554;44.954;10.068;2023-08-21T13:13:33;11.65;;;10.00;;
39880;SDS011;25554;44.954;10.068;2023-08-21T13:16:00;11.23;;;9.93;;
39880;SDS011;25554;44.954;10.068;2023-08-21T13:18:26;11.73;;;9.75;;
39880;SDS011;25554;44.954;10.068;2023-08-21T13:20:52;11.07;;;9.98;;
39880;SDS011;25554;44.954;10.068;2023-08-21T13:23:19;11.32;;;10.23;;
39880;SDS011;25554;44.954;10.068;2023-08-21T13:25:45;12.50;;;10.95;;
39880;SDS011;25554;44.954;10.068;2023-08-21T13:28:11;11.35;;;10.25;;
39880;SDS011;25554;44.954;10.068;2023-08-21T13:30:38;11.10;;;9.93;;
39880;SDS011;25554;44.954;10.068;2023-08-21T13:33:04;10.73;;;9.65;;
39880;SDS011;25554;44.954;10.068;2023-08-21T13:35:31;10.68;;;9.73;;
39880;SDS011;25554;44.954;10.068;2023-08-21T13:37:57;12.63;;;9.95;;
39880;SDS011;25554;44.954;10.068;2023-08-21T13:40:24;12.25;;;10.02;;
39880;SDS011;25554;44.954;10.068;2023-08-21T13:42:50;10.52;;;9.63;;
39880;SDS011;25554;44.954;10.068;2023-08-21T13:45:17;12.77;;;9.98;;
39880;SDS011;25554;44.954;10.068;2023-08-21T13:47:46;11.73;;;10.38;;
39880;SDS011;25554;44.954;10.068;2023-08-21T13:50:14;10.82;;;9.82;;
39880;SDS011;25554;44.954;10.068;2023-08-21T13:52:45;11.38;;;9.98;;
39880;SDS011;25554;44.954;10.068;2023-08-21T13:55:12;11.05;;;9.95;;
39880;SDS011;25554;44.954;10.068;2023-08-21T13:57:40;10.13;;;9.18;;
39880;SDS011;25554;44.954;10.068;2023-08-21T14:00:07;11.77;;;9.55;;
39880;SDS011;25554;44.954;10.068;2023-08-21T14:02:37;14.40;;;10.07;;
39880;SDS011;25554;44.954;10.068;2023-08-21T14:05:05;11.48;;;10.27;;
39880;SDS011;25554;44.954;10.068;2023-08-21T14:07:33;12.38;;;10.05;;
39880;SDS011;25554;44.954;10.068;2023-08-21T14:10:00;11.02;;;10.05;;
39880;SDS011;25554;44.954;10.068;2023-08-21T14:12:29;10.70;;;9.70;;
39880;SDS011;25554;44.954;10.068;2023-08-21T14:14:57;11.35;;;9.93;;
39880;SDS011;25554;44.954;10.068;2023-08-21T14:17:24;10.73;;;9.60;;
39880;SDS011;25554;44.954;10.068;2023-08-21T14:19:51;13.45;;;10.98;;
39880;SDS011;25554;44.954;10.068;2023-08-21T14:22:17;12.10;;;9.60;;
39880;SDS011;25554;44.954;10.068;2023-08-21T14:24:43;11.70;;;9.65;;
39880;SDS011;25554;44.954;10.068;2023-08-21T14:27:10;10.52;;;8.88;;
39880;SDS011;25554;44.954;10.068;2023-08-21T14:29:36;12.25;;;9.45;;
39880;SDS011;25554;44.954;10.068;2023-08-21T14:32:02;11.05;;;9.75;;
39880;SDS011;25554;44.954;10.068;2023-08-21T14:34:29;10.82;;;9.25;;
39880;SDS011;25554;44.954;10.068;2023-08-21T14:36:55;10.40;;;9.40;;
39880;SDS011;25554;44.954;10.068;2023-08-21T14:39:22;10.80;;;9.70;;
39880;SDS011;25554;44.954;10.068;2023-08-21T14:41:56;10.27;;;9.38;;
39880;SDS011;25554;44.954;10.068;2023-08-21T14:44:23;10.52;;;9.35;;
39880;SDS011;25554;44.954;10.068;2023-08-21T14:46:53;10.85;;;9.68;;
39880;SDS011;25554;44.954;10.068;2023-08-21T14:49:21;9.43;;;8.45;;
39880;SDS011;25554;44.954;10.068;2023-08-21T14:51:48;9.90;;;8.63;;
39880;SDS011;25554;44.954;10.068;2023-08-21T14:54:14;11.23;;;9.80;;
39880;SDS011;25554;44.954;10.068;2023-08-21T14:56:40;9.80;;;8.80;;
39880;SDS011;25554;44.954;10.068;2023-08-21T14:59:07;11.07;;;8.60;;
39880;SDS011;25554;44.954;10.068;2023-08-21T15:01:37;10.63;;;9.48;;
39880;SDS011;25554;44.954;10.068;2023-08-21T15:04:05;10.85;;;9.60;;
39880;SDS011;25554;44.954;10.068;2023-08-21T15:06:32;14.32;;;10.13;;
39880;SDS011;25554;44.954;10.068;2023-08-21T15:08:59;12.95;;;9.55;;
39880;SDS011;25554;44.954;10.068;2023-08-21T15:11:26;12.63;;;9.90;;
39880;SDS011;25554;44.954;10.068;2023-08-21T15:13:52;16.80;;;9.48;;
39880;SDS011;25554;44.954;10.068;2023-08-21T15:16:18;13.70;;;9.57;;
39880;SDS011;25554;44.954;10.068;2023-08-21T15:18:45;20.73;;;9.15;;
39880;SDS011;25554;44.954;10.068;2023-08-21T15:21:13;14.43;;;8.90;;
39880;SDS011;25554;44.954;10.068;2023-08-21T15:23:39;9.88;;;8.98;;
39880;SDS011;25554;44.954;10.068;2023-08-21T15:26:05;8.88;;;8.18;;
39880;SDS011;25554;44.954;10.068;2023-08-21T15:28:32;11.77;;;8.82;;
39880;SDS011;25554;44.954;10.068;2023-08-21T15:30:58;9.90;;;8.93;;
39880;SDS011;25554;44.954;10.068;2023-08-21T15:33:24;10.07;;;9.07;;
39880;SDS011;25554;44.954;10.068;2023-08-21T15:35:50;9.80;;;8.98;;
39880;SDS011;25554;44.954;10.068;2023-08-21T15:38:17;11.52;;;9.02;;
39880;SDS011;25554;44.954;10.068;2023-08-21T15:40:43;13.55;;;9.48;;
39880;SDS011;25554;44.954;10.068;2023-08-21T15:43:09;14.48;;;8.38;;
39880;SDS011;25554;44.954;10.068;2023-08-21T15:45:36;10.50;;;9.38;;
39880;SDS011;25554;44.954;10.068;2023-08-21T15:48:02;11.85;;;10.07;;
39880;SDS011;25554;44.954;10.068;2023-08-21T15:50:29;11.63;;;9.55;;
39880;SDS011;25554;44.954;10.068;2023-08-21T15:52:55;11.68;;;9.27;;
39880;SDS011;25554;44.954;10.068;2023-08-21T15:55:22;9.65;;;8.07;;
39880;SDS011;25554;44.954;10.068;2023-08-21T15:57:48;9.35;;;8.60;;
39880;SDS011;25554;44.954;10.068;2023-08-21T16:00:14;8.82;;;8.05;;
39880;SDS011;25554;44.954;10.068;2023-08-21T16:02:41;10.25;;;9.02;;
39880;SDS011;25554;44.954;10.068;2023-08-21T16:05:07;11.35;;;8.95;;
39880;SDS011;25554;44.954;10.068;2023-08-21T16:07:34;9.73;;;8.35;;
39880;SDS011;25554;44.954;10.068;2023-08-21T16:10:00;9.27;;;8.40;;
39880;SDS011;25554;44.954;10.068;2023-08-21T16:12:29;14.40;;;8.32;;
39880;SDS011;25554;44.954;10.068;2023-08-21T16:14:55;10.77;;;8.55;;